createdAt,value
2023-02-15T00:01:18.620Z,41.97
2023-02-15T00:04:24.369Z,44.40
2023-02-15T00:07:25.959Z,46.42
2023-02-15T00:10:27.515Z,46.65
2023-02-15T00:13:29.084Z,46.10
2023-02-15T00:16:30.636Z,57.60
2023-02-15T00:19:32.165Z,45.40
2023-02-15T00:22:33.722Z,42.67
2023-02-15T00:25:35.283Z,35.75
2023-02-15T00:28:36.837Z,28.58
2023-02-15T00:31:38.565Z,38.47
2023-02-15T00:34:40.205Z,22.13
2023-02-15T00:37:41.814Z,32.40
2023-02-15T00:40:43.386Z,29.27
2023-02-15T00:43:44.946Z,39.85
2023-02-15T00:46:46.505Z,50.70
2023-02-15T00:49:48.065Z,56.15
2023-02-15T00:52:49.682Z,30.67
2023-02-15T00:55:51.193Z,33.95
2023-02-15T00:58:52.952Z,28.60
2023-02-15T01:01:54.458Z,40.15
2023-02-15T01:04:55.959Z,44.50
2023-02-15T01:07:58.122Z,29.73
2023-02-15T01:11:07.982Z,25.77
2023-02-15T01:14:09.500Z,40.50
2023-02-15T01:17:11.024Z,35.33
2023-02-15T01:20:12.857Z,32.53
2023-02-15T01:23:14.414Z,38.53
2023-02-15T01:26:16.051Z,39.85
2023-02-15T01:29:17.794Z,21.38
2023-02-15T01:32:19.483Z,29.25
2023-02-15T01:35:21.035Z,40.05
2023-02-15T01:38:22.514Z,38.08
2023-02-15T01:41:24.485Z,30.70
2023-02-15T01:45:02.708Z,34.80
2023-02-15T01:52:25.681Z,30.55
2023-02-15T01:55:29.859Z,26.25
2023-02-15T01:58:31.338Z,27.88
2023-02-15T02:01:32.850Z,21.83
2023-02-15T02:04:50.000Z,29.48
2023-02-15T02:07:52.923Z,30.90
2023-02-15T02:10:54.406Z,22.30
2023-02-15T02:13:56.094Z,25.25
2023-02-15T02:17:06.894Z,23.33
2023-02-15T02:20:29.753Z,20.52
2023-02-15T02:24:02.325Z,20.50
2023-02-15T02:27:18.287Z,21.55
2023-02-15T02:30:57.822Z,19.70
2023-02-15T02:33:59.362Z,24.77
2023-02-15T02:37:21.675Z,30.83
2023-02-15T02:40:47.996Z,17.07
2023-02-15T02:44:08.540Z,20.75
2023-02-15T02:47:28.251Z,19.38
2023-02-15T02:50:30.361Z,17.98
2023-02-15T02:53:32.047Z,17.58
2023-02-15T02:56:44.303Z,20.15
2023-02-15T02:59:46.330Z,19.40
2023-02-15T03:02:48.516Z,18.17
2023-02-15T03:05:51.873Z,16.23
2023-02-15T03:08:56.699Z,15.73
2023-02-15T03:11:58.174Z,24.85
2023-02-15T03:15:05.811Z,21.23
2023-02-15T03:18:07.717Z,18.83
2023-02-15T03:21:09.255Z,18.83
2023-02-15T03:24:14.903Z,18.67
2023-02-15T03:27:19.875Z,15.93
2023-02-15T03:30:22.314Z,15.60
2023-02-15T03:33:23.874Z,18.50
2023-02-15T03:36:33.738Z,17.10
2023-02-15T03:39:39.069Z,23.88
2023-02-15T03:42:40.606Z,20.83
2023-02-15T03:45:55.386Z,17.35
2023-02-15T03:48:59.460Z,27.25
2023-02-15T03:52:00.936Z,22.27
2023-02-15T03:55:02.442Z,15.75
2023-02-15T03:58:22.552Z,19.55
2023-02-15T04:02:00.489Z,20.70
2023-02-15T04:05:01.972Z,19.45
2023-02-15T04:08:03.727Z,15.43
2023-02-15T04:11:05.205Z,15.57
2023-02-15T04:14:26.651Z,19.73
2023-02-15T04:17:28.215Z,17.85
2023-02-15T04:20:48.231Z,18.90
2023-02-15T04:24:07.985Z,16.85
2023-02-15T04:27:09.836Z,15.60
2023-02-15T04:30:12.116Z,15.47
2023-02-15T04:33:13.663Z,11.30
2023-02-15T04:36:15.165Z,13.98
2023-02-15T04:39:17.047Z,12.30
2023-02-15T04:42:18.589Z,23.73
2023-02-15T04:45:20.110Z,19.70
2023-02-15T04:48:21.603Z,22.80
2023-02-15T04:51:23.185Z,20.00
2023-02-15T04:54:24.745Z,18.80
2023-02-15T04:57:26.259Z,38.72
2023-02-15T05:00:28.425Z,98.82
2023-02-15T05:03:30.018Z,33.72
2023-02-15T05:06:31.495Z,15.57
2023-02-15T05:09:33.447Z,15.73
2023-02-15T05:12:34.976Z,18.13
2023-02-15T05:15:36.465Z,14.88
2023-02-15T05:18:38.029Z,16.58
2023-02-15T05:21:39.514Z,13.25
2023-02-15T05:24:59.617Z,14.13
2023-02-15T05:28:19.798Z,28.60
2023-02-15T05:31:21.507Z,25.60
2023-02-15T05:34:23.069Z,26.55
2023-02-15T05:37:24.617Z,18.63
2023-02-15T05:40:26.167Z,15.68
2023-02-15T05:43:27.809Z,19.27
2023-02-15T05:46:29.351Z,23.30
2023-02-15T05:49:31.530Z,55.08
2023-02-15T05:52:33.027Z,75.75
2023-02-15T05:55:34.536Z,72.25
2023-02-15T05:58:37.540Z,40.42
2023-02-15T06:01:39.316Z,39.35
2023-02-15T06:04:40.882Z,26.33
2023-02-15T06:07:45.801Z,29.83
2023-02-15T06:10:47.519Z,24.88
2023-02-15T06:13:49.058Z,30.25
2023-02-15T06:16:50.581Z,22.15
2023-02-15T06:19:52.104Z,39.08
2023-02-15T06:22:53.638Z,27.35
2023-02-15T06:25:55.188Z,21.80
2023-02-15T06:28:56.717Z,32.90
2023-02-15T06:31:58.362Z,30.83
2023-02-15T06:34:59.998Z,24.63
2023-02-15T06:38:01.464Z,28.90
2023-02-15T06:41:03.561Z,24.52
2023-02-15T06:44:05.271Z,23.20
2023-02-15T06:47:06.797Z,24.52
2023-02-15T06:50:08.856Z,17.63
2023-02-15T06:53:10.401Z,16.88
2023-02-15T06:56:12.030Z,20.63
2023-02-15T06:59:13.715Z,28.92
2023-02-15T07:02:15.262Z,30.95
2023-02-15T07:05:17.018Z,31.95
2023-02-15T07:08:21.018Z,23.42
2023-02-15T07:11:40.914Z,26.85
2023-02-15T07:14:42.416Z,21.08
2023-02-15T07:17:44.178Z,16.45
2023-02-15T07:20:45.800Z,16.13
2023-02-15T07:23:47.344Z,11.48
2023-02-15T07:26:48.884Z,23.80
2023-02-15T07:29:50.384Z,16.80
2023-02-15T07:33:10.389Z,19.23
2023-02-15T07:36:13.096Z,9.93
2023-02-15T07:39:14.680Z,8.82
2023-02-15T07:42:16.249Z,15.73
2023-02-15T07:45:17.816Z,14.15
2023-02-15T07:48:19.373Z,19.08
2023-02-15T07:51:22.336Z,17.63
2023-02-15T07:54:23.925Z,11.73
2023-02-15T07:57:25.421Z,15.02
2023-02-15T08:00:27.545Z,18.08
2023-02-15T08:03:30.042Z,14.13
2023-02-15T08:06:33.756Z,17.80
2023-02-15T08:09:35.243Z,20.83
2023-02-15T08:12:36.775Z,17.55
2023-02-15T08:15:38.271Z,11.68
2023-02-15T08:18:39.785Z,11.80
2023-02-15T08:21:42.848Z,7.70
2023-02-15T08:24:44.354Z,8.75
2023-02-15T08:27:45.951Z,12.00
2023-02-15T08:30:47.466Z,36.10
2023-02-15T08:33:49.463Z,28.45
2023-02-15T08:36:51.847Z,16.92
2023-02-15T08:39:54.470Z,17.63
2023-02-15T08:42:56.002Z,11.85
2023-02-15T08:45:57.526Z,9.20
2023-02-15T08:48:59.240Z,8.70
2023-02-15T08:52:00.855Z,9.67
2023-02-15T08:55:02.367Z,7.43
2023-02-15T08:58:03.960Z,10.38
2023-02-15T09:01:11.981Z,7.00
2023-02-15T09:04:14.166Z,10.68
2023-02-15T09:07:15.724Z,5.72
2023-02-15T09:10:17.373Z,4.47
2023-02-15T09:13:18.890Z,6.57
2023-02-15T09:16:20.529Z,7.40
2023-02-15T09:19:24.961Z,12.63
2023-02-15T09:22:26.479Z,16.33
2023-02-15T09:25:28.267Z,25.17
2023-02-15T09:28:30.508Z,24.90
2023-02-15T09:34:35.210Z,24.65
2023-02-15T09:37:36.706Z,22.73
2023-02-15T09:40:41.854Z,19.92
2023-02-15T09:44:11.227Z,12.00
2023-02-15T09:47:37.981Z,10.63
2023-02-15T09:51:00.141Z,9.13
2023-02-15T09:54:24.374Z,25.60
2023-02-15T09:57:29.278Z,16.60
2023-02-15T10:00:39.295Z,32.83
2023-02-15T10:03:57.203Z,22.95
2023-02-15T10:07:15.077Z,15.05
2023-02-15T10:10:27.075Z,16.35
2023-02-15T10:14:11.809Z,12.45
2023-02-15T10:17:36.303Z,15.27
2023-02-15T10:20:40.778Z,16.50
2023-02-15T10:24:15.763Z,14.75
2023-02-15T10:27:20.927Z,16.67
2023-02-15T10:30:32.663Z,28.60
2023-02-15T10:33:41.934Z,29.17
2023-02-15T10:36:58.792Z,31.88
2023-02-15T10:40:09.352Z,28.48
2023-02-15T10:43:20.530Z,31.00
2023-02-15T10:46:58.653Z,36.17
2023-02-15T10:50:13.552Z,36.47
2023-02-15T10:53:57.475Z,36.33
2023-02-15T10:57:12.718Z,32.67
2023-02-15T11:00:32.161Z,37.20
2023-02-15T11:03:55.053Z,35.25
2023-02-15T11:06:58.939Z,30.40
2023-02-15T11:10:06.297Z,32.35
2023-02-15T11:13:14.689Z,30.48
2023-02-15T11:16:22.350Z,28.60
2023-02-15T11:19:27.180Z,28.00
2023-02-15T11:22:28.704Z,32.08
2023-02-15T11:25:34.854Z,33.40
2023-02-15T11:28:41.273Z,33.03
2023-02-15T11:31:44.466Z,30.02
2023-02-15T11:35:01.334Z,28.05
2023-02-15T11:38:20.276Z,31.45
2023-02-15T11:41:25.193Z,29.85
2023-02-15T11:44:33.800Z,32.92
2023-02-15T11:47:35.308Z,29.90
2023-02-15T11:50:36.813Z,28.83
2023-02-15T11:53:38.870Z,31.00
2023-02-15T11:56:40.373Z,30.48
2023-02-15T11:59:43.123Z,30.20
2023-02-15T12:02:46.542Z,32.10
2023-02-15T12:05:49.216Z,33.20
2023-02-15T12:08:58.551Z,33.53
2023-02-15T12:12:25.496Z,41.20
2023-02-15T12:15:33.768Z,42.45
2023-02-15T12:18:42.331Z,46.65
2023-02-15T12:21:43.812Z,47.65
2023-02-15T12:24:46.405Z,54.60
2023-02-15T12:30:49.305Z,47.15
2023-02-15T12:33:55.103Z,38.80
2023-02-15T12:36:59.216Z,55.00
2023-02-15T12:40:01.041Z,52.22
2023-02-15T12:43:09.674Z,52.22
2023-02-15T12:46:25.222Z,53.38
2023-02-15T12:49:27.709Z,48.65
2023-02-15T12:55:31.691Z,49.50
2023-02-15T12:58:42.386Z,44.67
2023-02-15T13:01:43.925Z,53.75
2023-02-15T13:04:49.546Z,57.55
2023-02-15T13:07:52.947Z,47.47
2023-02-15T13:11:05.065Z,46.90
2023-02-15T13:14:33.145Z,43.05
2023-02-15T13:17:35.088Z,53.38
2023-02-15T13:20:37.333Z,49.75
2023-02-15T13:23:39.087Z,49.63
2023-02-15T13:26:45.584Z,48.45
2023-02-15T13:30:00.605Z,46.78
2023-02-15T13:33:06.959Z,50.70
2023-02-15T13:36:23.963Z,45.08
2023-02-15T13:39:49.627Z,47.15
2023-02-15T13:42:57.000Z,49.72
2023-02-15T13:46:46.605Z,52.35
2023-02-15T13:50:04.955Z,51.30
2023-02-15T13:53:21.176Z,49.35
2023-02-15T13:56:47.108Z,52.17
2023-02-15T13:59:57.125Z,62.88
2023-02-15T14:03:17.155Z,50.58
2023-02-15T14:06:24.400Z,59.20
2023-02-15T14:09:31.987Z,49.03
2023-02-15T14:12:38.294Z,49.85
2023-02-15T14:15:46.177Z,52.47
2023-02-15T14:18:51.275Z,49.28
2023-02-15T14:22:06.025Z,45.45
2023-02-15T14:25:18.032Z,52.78
2023-02-15T14:28:42.074Z,39.93
2023-02-15T14:31:48.766Z,45.33
2023-02-15T14:34:53.211Z,51.90
2023-02-15T14:38:21.359Z,43.58
2023-02-15T14:41:45.724Z,43.97
2023-02-15T14:44:51.745Z,49.08
2023-02-15T14:48:03.816Z,46.03
2023-02-15T14:51:05.605Z,47.88
2023-02-15T14:54:10.813Z,54.60
2023-02-15T14:57:12.874Z,46.95
2023-02-15T15:00:32.320Z,51.33
2023-02-15T15:03:33.908Z,51.53
2023-02-15T15:06:36.936Z,54.30
2023-02-15T15:09:40.055Z,58.33
2023-02-15T15:12:41.601Z,52.22
2023-02-15T15:15:47.166Z,54.10
2023-02-15T15:18:49.133Z,50.17
2023-02-15T15:21:50.411Z,49.33
2023-02-15T15:24:52.691Z,50.42
2023-02-15T15:27:55.031Z,53.47
2023-02-15T15:30:56.579Z,57.17
2023-02-15T15:34:07.052Z,54.55
2023-02-15T15:37:23.692Z,52.10
2023-02-15T15:40:31.266Z,61.42
2023-02-15T15:43:42.258Z,52.35
2023-02-15T15:46:59.390Z,52.85
2023-02-15T15:50:01.000Z,75.03
2023-02-15T15:53:02.873Z,58.83
2023-02-15T15:56:06.735Z,57.75
2023-02-15T15:59:08.850Z,53.83
2023-02-15T16:02:18.698Z,47.95
2023-02-15T16:05:20.684Z,51.03
2023-02-15T16:08:34.585Z,56.55
2023-02-15T16:11:36.072Z,57.03
2023-02-15T16:14:38.961Z,58.90
2023-02-15T16:17:41.931Z,52.45
2023-02-15T16:20:48.959Z,65.50
2023-02-15T16:24:10.655Z,66.07
2023-02-15T16:27:20.245Z,70.90
2023-02-15T16:30:23.363Z,75.80
2023-02-15T16:33:24.877Z,79.20
2023-02-15T16:36:28.376Z,81.03
2023-02-15T16:39:29.828Z,77.38
2023-02-15T16:42:31.317Z,75.93
2023-02-15T16:45:33.348Z,83.68
2023-02-15T16:48:35.246Z,81.40
2023-02-15T16:51:37.052Z,78.63
2023-02-15T16:54:38.529Z,84.63
2023-02-15T16:57:40.051Z,88.55
2023-02-15T17:00:42.300Z,84.30
2023-02-15T17:03:43.848Z,95.47
2023-02-15T17:07:00.149Z,90.05
2023-02-15T17:10:01.789Z,111.00
2023-02-15T17:13:13.791Z,117.35
2023-02-15T17:16:27.044Z,114.33
2023-02-15T17:19:30.667Z,102.10
2023-02-15T17:22:32.124Z,98.07
2023-02-15T17:25:37.514Z,51.38
2023-02-15T17:28:39.002Z,48.60
2023-02-15T17:31:40.793Z,53.80
2023-02-15T17:35:09.906Z,61.88
2023-02-15T17:38:19.135Z,59.70
2023-02-15T17:41:20.624Z,68.20
2023-02-15T17:44:22.121Z,68.32
2023-02-15T17:47:25.542Z,56.70
2023-02-15T17:50:28.150Z,55.85
2023-02-15T17:53:29.659Z,50.03
2023-02-15T17:56:31.197Z,50.08
2023-02-15T17:59:32.656Z,51.22
2023-02-15T18:02:53.729Z,52.95
2023-02-15T18:06:13.811Z,51.67
2023-02-15T18:09:35.367Z,54.47
2023-02-15T18:12:38.483Z,49.45
2023-02-15T18:15:39.938Z,56.75
2023-02-15T18:18:41.992Z,49.60
2023-02-15T18:21:44.000Z,51.78
2023-02-15T18:24:46.097Z,56.05
2023-02-15T18:27:47.556Z,35.53
2023-02-15T18:30:49.127Z,48.25
2023-02-15T18:33:52.903Z,41.88
2023-02-15T18:36:54.365Z,48.47
2023-02-15T18:39:56.251Z,41.42
2023-02-15T18:42:57.720Z,49.27
2023-02-15T18:45:59.345Z,42.17
2023-02-15T18:49:00.817Z,42.55
2023-02-15T18:52:02.277Z,40.83
2023-02-15T18:55:23.749Z,37.30
2023-02-15T18:58:27.093Z,44.40
2023-02-15T19:01:28.566Z,43.05
2023-02-15T19:04:30.200Z,34.83
2023-02-15T19:07:31.657Z,35.17
2023-02-15T19:10:33.360Z,34.60
2023-02-15T19:13:36.237Z,40.35
2023-02-15T19:16:37.942Z,35.88
2023-02-15T19:19:39.506Z,38.55
2023-02-15T19:22:40.984Z,40.83
2023-02-15T19:25:42.477Z,37.55
2023-02-15T19:28:44.570Z,44.85
2023-02-15T19:31:46.135Z,32.97
2023-02-15T19:34:47.659Z,36.20
2023-02-15T19:37:50.452Z,32.47
2023-02-15T19:43:55.408Z,48.67
2023-02-15T19:46:56.895Z,34.97
2023-02-15T19:50:03.421Z,32.10
2023-02-15T19:53:04.955Z,25.52
2023-02-15T19:56:27.425Z,37.17
2023-02-15T19:59:33.023Z,31.45
2023-02-15T20:02:34.499Z,30.90
2023-02-15T20:05:38.338Z,29.27
2023-02-15T20:08:42.014Z,31.70
2023-02-15T20:11:43.562Z,44.60
2023-02-15T20:14:45.021Z,48.20
2023-02-15T20:17:46.522Z,35.17
2023-02-15T20:20:49.809Z,30.08
2023-02-15T20:23:51.350Z,33.53
2023-02-15T20:26:52.816Z,23.02
2023-02-15T20:29:56.823Z,23.38
2023-02-15T20:32:58.611Z,21.90
2023-02-15T20:36:00.103Z,25.25
2023-02-15T20:39:03.602Z,23.77
2023-02-15T20:42:05.168Z,26.50
2023-02-15T20:45:22.752Z,24.20
2023-02-15T20:48:24.232Z,24.85
2023-02-15T20:51:25.749Z,48.67
2023-02-15T20:54:28.948Z,55.92
2023-02-15T20:57:30.441Z,57.33
2023-02-15T21:00:32.106Z,60.35
2023-02-15T21:03:33.603Z,36.53
2023-02-15T21:06:35.081Z,33.25
2023-02-15T21:09:36.537Z,25.45
2023-02-15T21:12:38.054Z,20.30
2023-02-15T21:15:40.012Z,20.13
2023-02-15T21:18:42.396Z,21.58
2023-02-15T21:21:43.963Z,22.63
2023-02-15T21:24:50.336Z,19.90
2023-02-15T21:27:51.831Z,16.90
2023-02-15T21:30:53.534Z,16.27
2023-02-15T21:33:55.005Z,13.68
2023-02-15T21:36:56.530Z,14.98
2023-02-15T21:39:57.968Z,14.73
2023-02-15T21:43:18.069Z,12.85
2023-02-15T21:46:38.274Z,20.75
2023-02-15T21:49:39.768Z,11.38
2023-02-15T21:52:41.208Z,20.90
2023-02-15T21:55:42.848Z,20.40
2023-02-15T21:58:44.307Z,15.07
2023-02-15T22:01:49.422Z,17.13
2023-02-15T22:04:50.888Z,18.23
2023-02-15T22:07:52.403Z,14.10
2023-02-15T22:10:54.639Z,15.95
2023-02-15T22:13:56.216Z,14.77
2023-02-15T22:16:57.689Z,13.45
2023-02-15T22:19:59.148Z,15.77
2023-02-15T22:23:00.626Z,13.45
2023-02-15T22:26:07.509Z,10.18
2023-02-15T22:29:16.160Z,15.65
2023-02-15T22:32:19.154Z,16.75
2023-02-15T22:35:27.806Z,13.77
2023-02-15T22:38:29.469Z,13.80
2023-02-15T22:41:30.945Z,17.35
2023-02-15T22:44:33.534Z,13.45
2023-02-15T22:47:35.790Z,13.48
2023-02-15T22:50:37.940Z,11.88
2023-02-15T22:53:39.459Z,14.18
2023-02-15T22:56:51.023Z,14.13
2023-02-15T22:59:52.516Z,14.65
2023-02-15T23:02:54.605Z,18.75
2023-02-15T23:05:56.065Z,16.65
2023-02-15T23:08:57.708Z,15.18
2023-02-15T23:11:59.238Z,18.05
2023-02-15T23:15:00.720Z,16.58
2023-02-15T23:18:18.841Z,15.55
2023-02-15T23:21:33.444Z,20.08
2023-02-15T23:24:34.982Z,15.23
2023-02-15T23:27:55.034Z,18.27
2023-02-15T23:30:56.543Z,10.13
2023-02-15T23:33:58.210Z,19.52
2023-02-15T23:36:59.673Z,19.30
2023-02-15T23:40:19.704Z,17.73
2023-02-15T23:43:22.313Z,13.85
2023-02-15T23:46:24.932Z,15.55
2023-02-15T23:49:26.384Z,14.63
2023-02-15T23:52:27.843Z,15.18
2023-02-15T23:55:37.657Z,20.55
2023-02-15T23:58:40.417Z,13.57
